Time;durP1;ratioP1;P1;durP2;ratioP2;P2;SDS_P1;SDS_P2;PMS_P1;PMS_P2;Temp;Humidity;BMP_temperature;BMP_pressure;BME280_temperature;BME280_humidity;BME280_pressure;Samples;Min_cycle;Max_cycle;Signal;HPM_P1;HPM_P2
2023/12/18 00:01:28;;;;;;;4.80;3.08;;;;;;;4.49;60.80;101773.34;4394840;32;33424;-82
2023/12/18 00:03:56;;;;;;;4.62;3.78;;;;;;;4.44;60.97;101767.19;4407633;32;33546;-80
2023/12/18 00:06:24;;;;;;;0.45;0.45;;;;;;;4.24;61.28;101782.63;4406769;32;32874;-80
2023/12/18 00:08:51;;;;;;;4.57;1.65;;;;;;;4.35;60.88;101776.66;4406678;32;33429;-81
2023/12/18 00:11:19;;;;;;;2.20;1.17;;;;;;;4.08;61.74;101787.62;4393952;32;31306;-84
2023/12/18 00:13:47;;;;;;;2.70;2.50;;;;;;;4.28;61.35;101785.31;4407337;32;34042;-82
2023/12/18 00:16:14;;;;;;;3.35;2.00;;;;;;;4.27;61.07;101791.41;4394578;32;33130;-83
2023/12/18 00:18:43;;;;;;;3.67;2.20;;;;;;;4.19;61.45;101785.19;4407412;32;33685;-82
2023/12/18 00:21:11;;;;;;;1.85;0.75;;;;;;;4.35;60.81;101787.13;4406997;32;32764;-82
2023/12/18 00:23:38;;;;;;;1.35;1.30;;;;;;;4.24;60.89;101787.84;4421039;32;34511;-82
2023/12/18 00:26:06;;;;;;;0.45;0.40;;;;;;;4.24;60.95;101793.97;4406967;32;32444;-82
2023/12/18 00:28:34;;;;;;;0.15;0.15;;;;;;;4.27;60.70;101787.88;4407312;32;33945;-82
2023/12/18 00:31:01;;;;;;;1.55;1.40;;;;;;;4.29;60.77;101787.06;4403752;32;33267;-82
2023/12/18 00:33:29;;;;;;;2.62;2.42;;;;;;;4.18;60.82;101783.44;4407141;32;33380;-82
2023/12/18 00:35:57;;;;;;;1.05;1.05;;;;;;;4.16;61.30;101794.69;4405380;32;34322;-81
2023/12/18 00:38:25;;;;;;;0.65;0.65;;;;;;;3.87;61.99;101794.28;4417955;32;33608;-81
2023/12/18 00:40:53;;;;;;;1.55;1.45;;;;;;;4.10;61.21;101785.91;4394248;32;33127;-81
2023/12/18 00:43:20;;;;;;;2.12;1.90;;;;;;;4.11;61.08;101781.56;4407132;32;33517;-82
2023/12/18 00:45:48;;;;;;;5.25;1.58;;;;;;;4.08;61.52;101771.03;4406282;32;32854;-81
2023/12/18 00:48:17;;;;;;;2.15;2.05;;;;;;;4.12;61.60;101778.09;4393538;32;32887;-82
2023/12/18 00:50:45;;;;;;;3.25;3.03;;;;;;;4.05;61.22;101763.19;4394128;32;33330;-83
2023/12/18 00:53:16;;;;;;;2.45;2.25;;;;;;;3.98;61.82;101772.66;4406774;32;34532;-83
2023/12/18 00:55:43;;;;;;;1.37;1.33;;;;;;;3.99;61.80;101766.59;4407640;32;33577;-83
2023/12/18 00:58:11;;;;;;;1.37;1.15;;;;;;;3.95;61.82;101767.41;4396144;32;34091;-80
2023/12/18 01:00:39;;;;;;;1.25;1.15;;;;;;;4.05;61.22;101765.81;4408548;32;34188;-81
2023/12/18 01:03:07;;;;;;;2.10;1.95;;;;;;;4.15;60.97;101772.91;4408782;32;34480;-80
2023/12/18 01:05:34;;;;;;;1.02;1.02;;;;;;;3.90;61.57;101760.34;4420800;32;34030;-80
2023/12/18 01:08:02;;;;;;;0.57;0.55;;;;;;;3.93;61.68;101765.59;4408246;32;34206;-80
2023/12/18 01:10:30;;;;;;;1.92;1.83;;;;;;;3.96;61.64;101768.28;4409482;32;33256;-80
2023/12/18 01:12:57;;;;;;;3.10;1.62;;;;;;;3.98;61.30;101763.94;4408501;32;33669;-80
2023/12/18 01:15:25;;;;;;;2.85;2.65;;;;;;;4.00;61.39;101762.25;4409109;32;34917;-80
2023/12/18 01:17:53;;;;;;;3.03;2.85;;;;;;;3.87;61.46;101761.16;4400886;32;34310;-80
2023/12/18 01:20:20;;;;;;;2.08;1.98;;;;;;;4.10;60.78;101765.00;4409859;32;34014;-80
2023/12/18 01:22:48;;;;;;;4.90;3.40;;;;;;;3.73;61.35;101768.78;4407688;32;34173;-80
2023/12/18 01:25:31;;;;;;;2.15;1.95;;;;;;;3.71;62.03;101769.66;4410883;32;33738;-80
2023/12/18 01:27:59;;;;;;;1.90;1.80;;;;;;;3.68;61.99;101764.34;4407073;32;33835;-80
2023/12/18 01:30:27;;;;;;;1.27;1.23;;;;;;;3.68;61.75;101764.34;4396219;32;34384;-80
2023/12/18 01:32:55;;;;;;;1.65;1.55;;;;;;;3.63;61.83;101766.91;4396161;32;33855;-80
2023/12/18 01:35:22;;;;;;;1.25;1.25;;;;;;;3.62;62.08;101765.16;4419844;32;34003;-80
2023/12/18 01:37:50;;;;;;;0.62;0.62;;;;;;;3.71;61.97;101765.28;4407907;32;32305;-80
2023/12/18 01:40:18;;;;;;;1.60;1.50;;;;;;;3.49;62.87;101758.84;4422094;32;33682;-80
2023/12/18 01:42:45;;;;;;;1.37;1.27;;;;;;;3.49;62.54;101760.56;4396173;32;32354;-84
2023/12/18 01:45:13;;;;;;;0.65;0.65;;;;;;;3.55;62.79;101758.03;4404091;32;34232;-83
2023/12/18 01:47:41;;;;;;;0.17;0.17;;;;;;;3.43;63.60;101755.25;4408372;32;33951;-84
2023/12/18 01:50:11;;;;;;;1.05;0.90;;;;;;;3.55;63.49;101751.09;4408190;32;33269;-84
2023/12/18 01:52:39;;;;;;;1.90;1.77;;;;;;;3.67;63.06;101745.19;4407172;32;34511;-82
2023/12/18 01:55:09;;;;;;;2.72;1.50;;;;;;;3.78;62.88;101750.56;4396216;32;33739;-83
2023/12/18 01:57:36;;;;;;;2.70;2.28;;;;;;;3.75;62.80;101743.59;4407020;32;32533;-83
2023/12/18 02:00:06;;;;;;;1.62;1.30;;;;;;;3.63;62.77;101739.91;4408692;32;33635;-83
2023/12/18 02:02:35;;;;;;;2.20;1.85;;;;;;;3.61;62.81;101737.28;4408609;32;34576;-83
2023/12/18 02:05:02;;;;;;;0.95;0.95;;;;;;;3.62;62.66;101739.03;4407822;32;32643;-82
2023/12/18 02:07:33;;;;;;;0.32;0.32;;;;;;;3.55;62.87;101737.16;4395353;32;34837;-82
2023/12/18 02:10:01;;;;;;;0.05;0.05;;;;;;;3.53;63.38;101739.75;4420410;32;34278;-81
2023/12/18 02:12:29;;;;;;;0.43;0.43;;;;;;;3.71;62.69;101739.16;4407942;32;34579;-81
2023/12/18 02:14:58;;;;;;;1.65;1.55;;;;;;;3.78;62.75;101741.00;4408008;32;33150;-83
2023/12/18 02:17:25;;;;;;;0.88;0.88;;;;;;;3.67;62.98;101741.72;4404176;32;99815;-82
2023/12/18 02:20:07;;;;;;;7.05;2.50;;;;;;;3.82;62.03;101726.25;4407735;32;33695;-81
2023/12/18 02:22:48;;;;;;;0.65;0.65;;;;;;;3.71;62.58;101728.72;4380977;32;34068;-82
2023/12/18 02:25:17;;;;;;;0.30;0.30;;;;;;;3.50;64.01;101728.37;4406687;32;33247;-82
2023/12/18 02:27:45;;;;;;;2.65;2.45;;;;;;;3.59;62.63;101724.16;4408344;32;34767;-82
2023/12/18 02:30:15;;;;;;;2.15;1.98;;;;;;;3.56;63.09;101724.13;4407413;32;33028;-82
2023/12/18 02:32:43;;;;;;;1.05;1.05;;;;;;;3.59;63.29;101724.16;4407434;32;33971;-81
2023/12/18 02:35:12;;;;;;;0.20;0.20;;;;;;;3.56;63.29;101718.91;4408063;32;33238;-81
2023/12/18 02:37:39;;;;;;;0.55;0.52;;;;;;;3.55;63.61;101722.34;4395500;32;33742;-81
2023/12/18 02:40:07;;;;;;;1.58;1.48;;;;;;;3.57;63.33;101714.56;4407946;32;33553;-80
2023/12/18 02:42:35;;;;;;;2.67;1.70;;;;;;;3.56;63.42;101713.69;4407446;32;33614;-80
2023/12/18 02:45:03;;;;;;;0.65;0.65;;;;;;;3.73;63.04;101710.44;4408258;32;33258;-80
2023/12/18 02:47:31;;;;;;;1.50;1.25;;;;;;;3.74;62.64;101707.84;4419854;32;34864;-81
2023/12/18 02:49:59;;;;;;;1.92;1.75;;;;;;;3.62;63.11;101702.44;4395766;32;33312;-80
2023/12/18 02:52:27;;;;;;;1.00;0.98;;;;;;;3.66;62.57;101709.47;4407598;32;34587;-81
2023/12/18 02:54:54;;;;;;;1.90;1.83;;;;;;;3.73;62.57;101711.31;4395622;32;34172;-80
2023/12/18 02:57:22;;;;;;;1.62;1.52;;;;;;;3.71;63.33;101717.38;4408654;32;34178;-80
2023/12/18 02:59:49;;;;;;;1.65;1.35;;;;;;;3.52;63.57;101722.31;4419852;32;33557;-81
2023/12/18 03:02:17;;;;;;;1.70;1.50;;;;;;;3.68;63.26;101718.22;4407272;32;33841;-81
2023/12/18 03:04:45;;;;;;;3.33;2.80;;;;;;;3.64;63.11;101718.13;4407094;32;33552;-81
2023/12/18 03:07:12;;;;;;;1.25;0.75;;;;;;;3.49;64.03;101710.94;4407636;32;34114;-82
2023/12/18 03:09:40;;;;;;;3.55;1.92;;;;;;;3.47;64.03;101721.37;4407527;32;32551;-81
2023/12/18 03:12:08;;;;;;;1.33;1.27;;;;;;;3.68;63.37;101718.22;4407429;32;34033;-81
2023/12/18 03:14:36;;;;;;;2.65;2.42;;;;;;;3.69;63.63;101721.69;4395931;32;34473;-80
2023/12/18 03:17:03;;;;;;;0.03;0.03;;;;;;;3.76;63.42;101713.97;4407183;32;34417;-81
2023/12/18 03:19:31;;;;;;;1.55;1.45;;;;;;;3.82;63.27;101721.03;4395347;32;32954;-80
2023/12/18 03:21:59;;;;;;;1.58;1.48;;;;;;;3.60;63.09;101719.81;4407272;32;33973;-82
2023/12/18 03:24:26;;;;;;;1.05;1.05;;;;;;;3.42;64.17;101709.06;4408417;32;33612;-83
2023/12/18 03:26:54;;;;;;;0.37;0.37;;;;;;;3.61;62.90;101716.38;4399117;32;34101;-82
2023/12/18 03:29:22;;;;;;;0.65;0.65;;;;;;;3.68;63.23;101710.38;4407171;32;34079;-82
2023/12/18 03:31:49;;;;;;;0.68;0.68;;;;;;;3.80;63.17;101707.94;4394242;32;33806;-82
2023/12/18 03:34:17;;;;;;;2.03;1.85;;;;;;;3.52;63.66;101708.41;4391003;32;35414;-82
2023/12/18 03:36:45;;;;;;;1.55;1.52;;;;;;;3.65;63.32;101709.44;4406879;32;33274;-82
2023/12/18 03:39:13;;;;;;;6.20;1.95;;;;;;;4.17;61.13;101713.66;4407914;32;34418;-83
2023/12/18 03:41:41;;;;;;;1.85;1.75;;;;;;;3.90;61.67;101713.31;4407195;32;32953;-83
2023/12/18 03:44:08;;;;;;;2.10;1.52;;;;;;;3.61;62.75;101711.16;4406912;32;33857;-83
2023/12/18 03:46:36;;;;;;;0.30;0.30;;;;;;;3.62;62.89;101710.28;4395631;32;33041;-83
2023/12/18 03:49:03;;;;;;;1.35;1.23;;;;;;;3.65;62.69;101701.59;4406951;32;33532;-82
2023/12/18 03:51:32;;;;;;;0.73;0.73;;;;;;;3.60;62.77;101704.13;4407765;32;33575;-82
2023/12/18 03:54:00;;;;;;;1.90;1.60;;;;;;;3.73;62.51;101697.38;4419118;32;33557;-82
2023/12/18 03:56:28;;;;;;;0.65;0.65;;;;;;;3.72;62.43;101693.00;4394705;32;33019;-82
2023/12/18 03:58:56;;;;;;;1.12;1.12;;;;;;;3.60;62.36;101693.69;4407331;32;34369;-82
2023/12/18 04:01:24;;;;;;;6.45;1.10;;;;;;;3.68;62.57;101679.03;4394996;32;33549;-81
2023/12/18 04:03:51;;;;;;;0.90;0.90;;;;;;;3.74;61.98;101692.16;4407038;32;34713;-83
2023/12/18 04:06:19;;;;;;;0.57;0.57;;;;;;;3.72;62.41;101690.41;4406582;32;32840;-83
2023/12/18 04:08:47;;;;;;;0.15;0.15;;;;;;;3.49;62.93;101692.66;4407263;32;34415;-83
2023/12/18 04:11:15;;;;;;;0.82;0.82;;;;;;;3.44;63.26;101696.94;4394872;32;32506;-83
2023/12/18 04:13:43;;;;;;;0.75;0.75;;;;;;;3.56;62.88;101702.34;4407145;32;33989;-83
2023/12/18 04:16:11;;;;;;;1.98;1.70;;;;;;;3.46;62.79;101698.69;4406708;32;34366;-84
2023/12/18 04:18:38;;;;;;;0.43;0.43;;;;;;;3.52;62.92;101697.94;4407559;32;33116;-83
2023/12/18 04:21:06;;;;;;;0.60;0.60;;;;;;;3.61;62.26;101695.47;4407192;32;33527;-83
2023/12/18 04:23:34;;;;;;;0.30;0.30;;;;;;;3.49;62.09;101690.06;4407092;32;33580;-83
2023/12/18 04:26:02;;;;;;;2.50;0.93;;;;;;;3.52;62.31;101680.53;4387390;32;33876;-84
2023/12/18 04:28:30;;;;;;;0.30;0.30;;;;;;;3.57;62.12;101689.31;4395651;32;33944;-85
2023/12/18 04:30:58;;;;;;;2.85;2.05;;;;;;;3.33;62.62;101689.81;4409286;32;34174;-83
2023/12/18 04:33:26;;;;;;;0.13;0.13;;;;;;;3.25;62.54;101686.19;4396537;32;33254;-82
2023/12/18 04:35:54;;;;;;;5.57;2.87;;;;;;;3.49;62.32;101679.59;4407494;32;34837;-82
2023/12/18 04:38:22;;;;;;;1.40;1.30;;;;;;;3.47;62.13;101683.94;4408856;32;34074;-81
2023/12/18 04:40:50;;;;;;;0.80;0.80;;;;;;;3.40;61.85;101684.69;4383185;32;34457;-81
2023/12/18 04:43:17;;;;;;;2.60;1.52;;;;;;;3.32;62.57;101684.53;4421776;32;32629;-82
2023/12/18 04:45:45;;;;;;;1.05;1.05;;;;;;;3.33;62.28;101684.59;4407030;32;34217;-82
2023/12/18 04:48:13;;;;;;;0.73;0.73;;;;;;;3.25;62.57;101686.19;4408355;32;32435;-82
2023/12/18 04:50:40;;;;;;;0.45;0.45;;;;;;;3.49;61.50;101690.06;4408010;32;33515;-83
2023/12/18 04:53:08;;;;;;;0.65;0.65;;;;;;;3.45;61.72;101683.03;4408262;32;32207;-82
2023/12/18 04:55:36;;;;;;;0.68;0.68;;;;;;;3.43;61.94;101685.63;4408926;32;34176;-82
2023/12/18 04:58:04;;;;;;;0.95;0.95;;;;;;;3.17;62.22;101687.78;4407959;32;33943;-82
2023/12/18 05:00:31;;;;;;;1.58;1.50;;;;;;;2.99;63.01;101683.16;4408604;32;33730;-82
2023/12/18 05:02:59;;;;;;;3.47;2.45;;;;;;;3.13;62.57;101680.75;4419480;32;33767;-82
2023/12/18 05:05:27;;;;;;;0.85;0.85;;;;;;;3.30;62.11;101676.69;4408041;32;33839;-81
2023/12/18 05:07:55;;;;;;;0.30;0.30;;;;;;;3.16;62.67;101686.03;4409321;32;34917;-81
2023/12/18 05:10:23;;;;;;;0.43;0.43;;;;;;;3.10;62.67;101685.94;4408642;32;33482;-84
2023/12/18 05:12:50;;;;;;;2.47;2.08;;;;;;;3.01;63.17;101697.09;4396353;32;33811;-81
2023/12/18 05:15:18;;;;;;;0.52;0.52;;;;;;;3.02;62.96;101690.16;4396465;32;32904;-82
2023/12/18 05:17:46;;;;;;;2.00;1.83;;;;;;;3.17;62.32;101693.00;4406987;32;33728;-81
2023/12/18 05:20:14;;;;;;;2.05;1.95;;;;;;;3.18;61.77;101694.78;4408683;32;33598;-82
2023/12/18 05:22:42;;;;;;;2.08;1.87;;;;;;;3.18;61.69;101694.78;4409054;32;33980;-81
2023/12/18 05:25:10;;;;;;;3.25;1.12;;;;;;;3.25;61.44;101686.19;4406829;32;34919;-81
2023/12/18 05:27:38;;;;;;;0.10;0.10;;;;;;;3.21;61.31;101684.37;4407531;32;32656;-81
2023/12/18 05:30:06;;;;;;;0.65;0.65;;;;;;;3.20;61.51;101687.84;4407525;32;33949;-80
2023/12/18 05:32:35;;;;;;;0.45;0.45;;;;;;;3.03;61.63;101684.94;4408186;32;35058;-80
2023/12/18 05:35:02;;;;;;;0.15;0.15;;;;;;;3.07;61.42;101686.75;4409045;32;34060;-80
2023/12/18 05:37:30;;;;;;;1.75;1.65;;;;;;;3.05;61.61;101682.38;4408747;32;33332;-81
2023/12/18 05:39:57;;;;;;;0.68;0.68;;;;;;;3.09;61.30;101689.41;4400433;32;33051;-81
2023/12/18 05:42:25;;;;;;;2.40;2.12;;;;;;;3.05;61.90;101683.25;4405623;32;33394;-82
2023/12/18 05:44:53;;;;;;;0.65;0.65;;;;;;;3.22;61.12;101691.34;4420283;32;33415;-82
2023/12/18 05:47:21;;;;;;;8.77;2.53;;;;;;;3.03;61.48;101684.94;4420853;32;33615;-81
2023/12/18 05:49:48;;;;;;;1.37;1.20;;;;;;;2.90;62.59;101687.34;4407610;32;33667;-81
2023/12/18 05:52:20;;;;;;;0.08;0.08;;;;;;;2.77;63.06;101687.09;4396586;32;33015;-81
2023/12/18 05:54:48;;;;;;;1.10;1.10;;;;;;;2.90;62.64;101687.34;4397288;32;33938;-81
2023/12/18 05:57:16;;;;;;;1.40;1.27;;;;;;;2.81;62.64;101693.28;4407966;32;33100;-81
2023/12/18 05:59:45;;;;;;;1.42;1.35;;;;;;;2.98;62.36;101690.94;4407354;32;33478;-81
2023/12/18 06:02:13;;;;;;;0.85;0.85;;;;;;;3.02;61.95;101692.75;4395158;32;33576;-81
2023/12/18 06:04:44;;;;;;;0.50;0.50;;;;;;;2.98;62.10;101699.66;4407550;32;33387;-81
2023/12/18 06:07:11;;;;;;;6.80;3.75;;;;;;;2.90;62.02;101692.56;4408541;32;32751;-81
2023/12/18 06:09:39;;;;;;;1.62;1.58;;;;;;;3.02;61.66;101695.38;4408926;32;33708;-81
2023/12/18 06:12:07;;;;;;;2.37;2.28;;;;;;;2.81;62.57;101698.47;4420367;32;33636;-82
2023/12/18 06:14:35;;;;;;;1.87;1.77;;;;;;;2.89;62.32;101701.22;4396223;32;34507;-81
2023/12/18 06:17:06;;;;;;;1.30;1.30;;;;;;;3.03;61.54;101694.50;4408358;32;34825;-80
2023/12/18 06:19:34;;;;;;;2.03;0.90;;;;;;;3.02;61.97;101690.16;4408378;32;33907;-80
2023/12/18 06:22:03;;;;;;;0.95;0.95;;;;;;;3.04;61.76;101685.84;4407785;32;34454;-80
2023/12/18 06:24:30;;;;;;;0.68;0.68;;;;;;;3.08;61.54;101692.84;4398174;32;32999;-82
2023/12/18 06:26:58;;;;;;;0.65;0.65;;;;;;;3.05;61.57;101687.59;4408119;32;33312;-81
2023/12/18 06:29:27;;;;;;;0.90;0.90;;;;;;;2.76;62.13;101693.19;4408372;32;33531;-80
2023/12/18 06:31:54;;;;;;;0.65;0.65;;;;;;;2.77;62.64;101696.66;4395556;32;32447;-81
2023/12/18 06:34:22;;;;;;;2.97;2.25;;;;;;;2.72;62.50;101701.81;4408031;32;33720;-80
2023/12/18 06:36:50;;;;;;;0.10;0.10;;;;;;;2.88;62.41;101704.69;4407161;32;33634;-81
2023/12/18 06:39:17;;;;;;;1.37;1.35;;;;;;;2.98;62.20;101704.00;4418611;32;33073;-81
2023/12/18 06:41:45;;;;;;;0.82;0.82;;;;;;;2.87;62.51;101702.94;4407050;32;33628;-80
2023/12/18 06:44:13;;;;;;;2.47;2.12;;;;;;;2.88;62.53;101710.78;4407628;32;34875;-80
2023/12/18 06:46:41;;;;;;;1.65;1.58;;;;;;;2.72;62.61;101714.84;4395918;32;33643;-81
2023/12/18 06:49:08;;;;;;;0.10;0.10;;;;;;;2.76;62.39;101718.41;4395073;32;33990;-81
2023/12/18 06:51:36;;;;;;;0.45;0.45;;;;;;;2.81;62.54;101714.13;4404327;32;34179;-81
2023/12/18 06:54:04;;;;;;;0.25;0.25;;;;;;;2.83;62.52;101713.31;4408136;32;33715;-81
2023/12/18 06:56:32;;;;;;;1.70;1.60;;;;;;;3.05;61.63;101713.69;4382072;32;32916;-81
2023/12/18 06:59:03;;;;;;;0.75;0.75;;;;;;;2.97;61.85;101716.16;4408368;32;33179;-81
2023/12/18 07:01:31;;;;;;;0.88;0.88;;;;;;;2.99;61.74;101724.91;4396720;32;32999;-81
2023/12/18 07:03:59;;;;;;;0.50;0.50;;;;;;;2.72;62.78;101722.66;4407694;32;33469;-81
2023/12/18 07:06:27;;;;;;;1.33;1.23;;;;;;;2.86;62.47;101729.88;4398540;32;32954;-81
2023/12/18 07:08:54;;;;;;;1.10;1.10;;;;;;;2.81;62.50;101729.78;4394545;32;33633;-81
2023/12/18 07:11:23;;;;;;;2.03;1.92;;;;;;;2.80;62.91;101728.91;4419826;32;33590;-82
2023/12/18 07:13:51;;;;;;;0.93;0.93;;;;;;;3.02;62.57;101714.50;4408294;32;34068;-81
2023/12/18 07:16:20;;;;;;;0.52;0.52;;;;;;;3.05;62.11;101716.31;4407746;32;31762;-81
2023/12/18 07:18:48;;;;;;;2.03;1.92;;;;;;;2.97;62.61;101730.94;4407819;32;33452;-81
2023/12/18 07:21:16;;;;;;;0.95;0.95;;;;;;;3.02;62.09;101718.84;4395107;32;33154;-81
2023/12/18 07:23:44;;;;;;;2.25;2.15;;;;;;;3.15;61.89;101719.97;4421522;32;34154;-81
2023/12/18 07:26:13;;;;;;;3.17;3.05;;;;;;;3.22;61.18;101712.25;4393869;32;34374;-81
2023/12/18 07:28:41;;;;;;;4.87;3.60;;;;;;;3.27;61.68;101723.62;4408403;32;33456;-81
2023/12/18 07:31:08;;;;;;;0.50;0.50;;;;;;;3.05;63.00;101734.56;4394426;32;33755;-81
2023/12/18 07:33:37;;;;;;;3.22;2.87;;;;;;;3.17;62.49;101726.06;4407174;32;34047;-81
2023/12/18 07:36:05;;;;;;;6.95;2.80;;;;;;;3.18;62.63;101731.34;4407826;32;33998;-81
2023/12/18 07:38:33;;;;;;;3.25;3.05;;;;;;;3.45;62.09;101722.19;4382769;32;32912;-81
2023/12/18 07:41:04;;;;;;;4.40;4.03;;;;;;;3.50;61.70;101726.62;4407839;32;33807;-81
2023/12/18 07:43:32;;;;;;;1.73;1.62;;;;;;;3.45;62.54;101723.06;4407298;32;34457;-81
2023/12/18 07:45:59;;;;;;;1.50;1.40;;;;;;;3.59;62.14;101718.94;4394911;32;33907;-81
2023/12/18 07:48:31;;;;;;;2.67;2.17;;;;;;;3.58;62.48;101722.41;4420365;32;33840;-81
2023/12/18 07:50:59;;;;;;;1.20;1.10;;;;;;;3.66;62.57;101712.09;4407887;32;33349;-81
2023/12/18 07:53:26;;;;;;;3.40;2.78;;;;;;;3.78;62.30;101720.09;4394811;32;33068;-81
2023/12/18 07:55:54;;;;;;;3.58;2.87;;;;;;;3.93;62.10;101719.44;4392076;32;32323;-81
2023/12/18 07:58:22;;;;;;;0.90;0.90;;;;;;;3.98;62.25;101716.88;4405069;32;33809;-81
2023/12/18 08:00:51;;;;;;;3.10;2.35;;;;;;;3.97;62.37;101720.38;4389698;32;33482;-81
2023/12/18 08:03:24;;;;;;;1.15;0.98;;;;;;;4.18;61.84;101719.75;4391906;32;33746;-82
2023/12/18 08:05:51;;;;;;;3.75;3.45;;;;;;;4.19;61.74;101722.41;4407176;32;31819;-81
2023/12/18 08:08:19;;;;;;;3.37;2.03;;;;;;;4.28;62.29;101727.78;4407101;32;31677;-81
2023/12/18 08:10:48;;;;;;;9.73;4.10;;;;;;;4.44;61.91;101725.34;4406691;32;33357;-82
2023/12/18 08:13:15;;;;;;;1.17;1.15;;;;;;;4.42;62.29;101714.87;4395615;32;32532;-82
2023/12/18 08:15:43;;;;;;;1.33;1.23;;;;;;;4.46;61.80;101711.41;4406473;32;33230;-82
2023/12/18 08:18:12;;;;;;;6.65;3.85;;;;;;;4.54;62.01;101709.75;4406335;32;34186;-82
2023/12/18 08:20:39;;;;;;;2.92;2.67;;;;;;;4.56;62.38;101708.06;4407179;32;33085;-82
2023/12/18 08:23:07;;;;;;;2.20;2.10;;;;;;;4.68;62.24;101696.84;4393628;32;32290;-81
2023/12/18 08:25:35;;;;;;;2.55;2.42;;;;;;;4.84;61.67;101696.16;4407913;32;32557;-82
2023/12/18 08:28:03;;;;;;;2.47;2.33;;;;;;;4.98;61.48;101698.00;4395030;32;32529;-81
2023/12/18 08:30:30;;;;;;;2.97;2.67;;;;;;;5.22;61.37;101697.34;4395726;32;33845;-82
2023/12/18 08:32:59;;;;;;;3.22;2.92;;;;;;;5.54;60.82;101692.38;4420591;32;34363;-82
2023/12/18 08:35:27;;;;;;;4.30;3.20;;;;;;;5.43;61.33;101688.81;4396623;32;32837;-82
2023/12/18 08:37:54;;;;;;;5.22;4.10;;;;;;;5.41;61.79;101686.16;4406889;32;34434;-81
2023/12/18 08:40:22;;;;;;;2.55;2.45;;;;;;;5.22;62.30;101690.41;4408540;32;33270;-82
2023/12/18 08:42:50;;;;;;;3.53;2.47;;;;;;;5.33;62.46;101688.72;4409462;32;33587;-82
2023/12/18 08:45:17;;;;;;;0.73;0.73;;;;;;;5.38;62.76;101689.62;4408714;32;33165;-82
2023/12/18 08:47:45;;;;;;;4.05;2.85;;;;;;;5.73;62.63;101693.38;4408078;32;32547;-82
2023/12/18 08:50:13;;;;;;;3.03;2.75;;;;;;;5.73;62.55;101689.00;4396940;32;33483;-82
2023/12/18 08:52:41;;;;;;;0.47;0.47;;;;;;;5.88;62.39;101683.84;4396110;32;33628;-82
2023/12/18 08:55:09;;;;;;;3.55;2.17;;;;;;;6.14;62.52;101688.41;4409580;32;33313;-81
2023/12/18 08:57:37;;;;;;;2.40;2.30;;;;;;;6.35;61.90;101680.59;4407771;32;32434;-81
2023/12/18 09:00:06;;;;;;;3.67;3.45;;;;;;;6.46;61.42;101688.53;4396709;32;32888;-82
2023/12/18 09:02:35;;;;;;;1.85;1.40;;;;;;;6.56;61.00;101678.94;4409464;32;34857;-81
2023/12/18 09:05:03;;;;;;;2.62;2.08;;;;;;;6.62;60.81;101687.69;4408336;32;33197;-82
2023/12/18 09:07:30;;;;;;;2.17;2.08;;;;;;;6.81;59.99;101685.13;4383935;32;33134;-82
2023/12/18 09:09:58;;;;;;;0.85;0.85;;;;;;;6.97;59.55;101686.00;4408211;32;32879;-82
2023/12/18 09:12:26;;;;;;;1.42;1.33;;;;;;;7.10;59.39;101680.75;4408859;32;34065;-82
2023/12/18 09:14:54;;;;;;;2.72;1.75;;;;;;;7.22;59.21;101679.91;4395002;32;33690;-82
2023/12/18 09:17:21;;;;;;;2.92;2.47;;;;;;;7.38;58.33;101686.91;4395461;32;33130;-82
2023/12/18 09:19:49;;;;;;;2.37;1.50;;;;;;;7.53;57.94;101686.00;4420386;32;34684;-82
2023/12/18 09:22:18;;;;;;;1.70;1.02;;;;;;;7.79;56.46;101685.09;4407797;32;33947;-82
2023/12/18 09:24:46;;;;;;;2.53;2.33;;;;;;;7.79;56.91;101685.97;4383918;32;33166;-82
2023/12/18 09:27:14;;;;;;;3.10;2.58;;;;;;;7.63;57.20;101678.97;4408852;32;34262;-82
2023/12/18 09:29:42;;;;;;;3.22;3.00;;;;;;;8.20;55.09;101669.16;4408091;32;33975;-82
2023/12/18 09:32:10;;;;;;;2.62;2.17;;;;;;;8.29;55.06;101666.50;4408730;32;34750;-83
2023/12/18 09:34:37;;;;;;;1.25;1.25;;;;;;;8.39;53.83;101657.72;4408343;32;32875;-83
2023/12/18 09:37:05;;;;;;;9.52;3.70;;;;;;;8.11;54.67;101661.31;4394875;32;33118;-82
2023/12/18 09:39:33;;;;;;;1.70;1.52;;;;;;;8.39;54.18;101657.72;4421055;32;32584;-82
2023/12/18 09:42:02;;;;;;;4.95;3.30;;;;;;;8.86;52.79;101648.66;4407497;32;33782;-83
2023/12/18 09:44:31;;;;;;;2.90;2.40;;;;;;;8.73;53.24;101646.97;4407329;32;32444;-82
2023/12/18 09:46:59;;;;;;;2.10;1.67;;;;;;;8.40;54.24;101646.31;4395422;32;32764;-82
2023/12/18 09:49:27;;;;;;;2.55;2.35;;;;;;;8.60;53.78;101643.56;4396493;32;33031;-82
2023/12/18 09:52:00;;;;;;;5.22;2.15;;;;;;;8.48;54.37;101645.38;4396067;32;33262;-83
2023/12/18 09:54:29;;;;;;;3.50;2.42;;;;;;;8.54;54.35;101640.09;4396283;32;33972;-82
2023/12/18 09:56:59;;;;;;;4.43;3.17;;;;;;;8.80;53.87;101632.91;4394484;32;32974;-82
2023/12/18 09:59:27;;;;;;;1.95;1.20;;;;;;;8.86;53.35;101626.69;4401429;32;33982;-83
2023/12/18 10:01:55;;;;;;;0.85;0.68;;;;;;;9.17;52.10;101627.34;4408507;32;35041;-82
2023/12/18 10:04:23;;;;;;;2.83;2.65;;;;;;;9.26;51.67;101629.91;4407759;32;34218;-83
2023/12/18 10:06:51;;;;;;;5.22;2.25;;;;;;;8.91;53.22;101620.50;4395645;32;32443;-83
2023/12/18 10:09:19;;;;;;;2.92;1.83;;;;;;;9.10;53.06;101630.91;4394923;32;34659;-83
2023/12/18 10:11:47;;;;;;;5.70;3.10;;;;;;;9.24;51.97;101629.91;4395687;32;34290;-82
2023/12/18 10:14:20;;;;;;;2.53;2.28;;;;;;;9.33;52.31;101634.22;4401748;32;33909;-82
2023/12/18 10:16:49;;;;;;;2.87;1.70;;;;;;;9.22;52.29;101622.91;4420707;32;33218;-83
2023/12/18 10:19:18;;;;;;;4.00;3.70;;;;;;;9.08;53.06;101607.22;4407880;32;33595;-83
2023/12/18 10:21:45;;;;;;;1.50;1.40;;;;;;;9.41;52.61;101605.16;4394708;32;33378;-82
2023/12/18 10:24:14;;;;;;;0.75;0.75;;;;;;;9.67;51.98;101603.09;4408749;32;33044;-83
2023/12/18 10:26:46;;;;;;;6.43;3.92;;;;;;;10.17;50.15;101598.97;4381857;32;32584;-83
2023/12/18 10:29:15;;;;;;;5.87;4.62;;;;;;;10.23;50.20;101598.00;4395193;32;33399;-83
2023/12/18 10:31:44;;;;;;;8.43;6.90;;;;;;;10.28;51.17;101600.63;4407795;32;33797;-82
2023/12/18 10:34:11;;;;;;;3.58;3.05;;;;;;;10.26;50.30;101598.00;4407722;32;34409;-82
2023/12/18 10:36:41;;;;;;;11.57;3.92;;;;;;;10.43;50.63;101596.00;4404977;32;32275;-82
2023/12/18 10:39:09;;;;;;;6.30;3.30;;;;;;;10.66;50.32;101595.66;4404124;32;34077;-81
2023/12/18 10:41:40;;;;;;;7.57;3.60;;;;;;;10.94;50.36;101588.16;4417029;32;33133;-81
2023/12/18 10:44:10;;;;;;;4.82;3.75;;;;;;;11.05;48.80;101587.97;4405578;32;34022;-81
2023/12/18 10:46:38;;;;;;;4.70;4.30;;;;;;;10.82;49.20;101587.47;4403572;32;33843;-81
2023/12/18 10:49:07;;;;;;;1.83;1.73;;;;;;;10.96;49.29;101590.75;4392620;32;32686;-82
2023/12/18 10:51:36;;;;;;;4.32;4.03;;;;;;;11.01;48.52;101584.53;4391249;32;33838;-81
2023/12/18 10:54:05;;;;;;;2.20;1.95;;;;;;;11.39;48.18;101575.00;4405618;32;33926;-81
2023/12/18 10:56:32;;;;;;;1.12;1.12;;;;;;;11.68;46.54;101570.91;4401337;32;34463;-82
2023/12/18 10:59:03;;;;;;;1.80;1.70;;;;;;;11.92;46.23;101567.84;4392230;32;35781;-81
2023/12/18 11:01:32;;;;;;;4.25;2.37;;;;;;;11.87;46.09;101560.88;4417921;32;34104;-82
2023/12/18 11:04:00;;;;;;;0.93;0.93;;;;;;;11.78;47.18;101557.50;4393190;32;33328;-82
2023/12/18 11:06:29;;;;;;;1.33;1.23;;;;;;;11.59;46.83;101556.13;4405356;32;34001;-82
2023/12/18 11:08:57;;;;;;;1.50;1.40;;;;;;;11.62;46.72;101555.19;4397076;32;33680;-81
2023/12/18 11:11:26;;;;;;;5.85;3.20;;;;;;;12.08;45.52;101552.47;4404797;32;33321;-82
2023/12/18 11:14:15;;;;;;;2.85;2.65;;;;;;;12.34;45.52;101551.00;4390862;32;33992;-81
2023/12/18 11:17:16;;;;;;;4.20;2.85;;;;;;;12.29;44.64;101545.81;4419411;32;34126;-82
2023/12/18 11:19:54;;;;;;;0.75;0.73;;;;;;;12.36;44.39;101539.50;4410409;32;33832;-81
2023/12/18 11:22:35;;;;;;;3.22;2.45;;;;;;;12.01;45.25;101532.31;4417166;32;34429;-82
2023/12/18 11:25:04;;;;;;;0.52;0.52;;;;;;;12.13;45.78;101531.19;4380977;32;35398;-82
2023/12/18 11:27:32;;;;;;;1.70;1.60;;;;;;;12.29;45.51;101533.44;4392157;32;32467;-82
2023/12/18 11:30:00;;;;;;;0.28;0.28;;;;;;;12.14;46.02;101523.19;4405658;32;31580;-82
2023/12/18 11:32:46;;;;;;;2.28;2.08;;;;;;;12.46;44.92;101525.09;4403688;32;32768;-82
2023/12/18 11:35:15;;;;;;;0.55;0.52;;;;;;;12.13;44.96;101515.31;4404569;32;32059;-82
2023/12/18 11:37:50;;;;;;;2.35;2.20;;;;;;;12.23;44.72;101522.13;4393020;32;33195;-82